Time;durP1;ratioP1;P1;durP2;ratioP2;P2;SDS_P1;SDS_P2;PMS_P1;PMS_P2;Temp;Humidity;BMP_temperature;BMP_pressure;BME280_temperature;BME280_humidity;BME280_pressure;Samples;Min_cycle;Max_cycle;Signal;HPM_P1;HPM_P2
2022/06/15 00:01:27;;;;;;;10.32;7.35;;;11.80;1.00;;;;;;4976903;28;20052;-90
2022/06/15 00:03:54;;;;;;;13.30;9.30;;;11.70;1.00;;;;;;4972372;28;20043;-91
2022/06/15 00:06:21;;;;;;;14.35;8.57;;;11.70;1.00;;;;;;4963444;28;20050;-90
2022/06/15 00:08:51;;;;;;;12.23;8.18;;;11.60;1.00;;;;;;4969971;28;20038;-91
2022/06/15 00:11:22;;;;;;;14.15;9.05;;;11.70;1.00;;;;;;4970524;28;20478;-90
2022/06/15 00:13:49;;;;;;;11.55;8.88;;;11.60;1.00;;;;;;4994164;28;20046;-90
2022/06/15 00:16:16;;;;;;;14.27;9.48;;;11.60;1.00;;;;;;4967153;28;20052;-91
2022/06/15 00:18:44;;;;;;;12.32;9.00;;;11.60;1.00;;;;;;4970004;28;20490;-90
2022/06/15 00:21:11;;;;;;;12.25;8.50;;;11.60;1.00;;;;;;4967152;28;20077;-90
2022/06/15 00:23:36;;;;;;;15.90;8.98;;;11.50;1.00;;;;;;4967879;28;20129;-91
2022/06/15 00:26:04;;;;;;;12.07;9.00;;;11.50;1.00;;;;;;4974066;28;20619;-90
2022/06/15 00:28:30;;;;;;;12.80;8.35;;;11.40;1.00;;;;;;4970549;28;20067;-90
2022/06/15 00:30:56;;;;;;;12.18;8.93;;;11.40;1.00;;;;;;4972008;28;20077;-89
2022/06/15 00:33:22;;;;;;;14.07;8.82;;;11.40;1.00;;;;;;4959031;28;20140;-89
2022/06/15 00:35:59;;;;;;;14.43;10.23;;;11.40;1.00;;;;;;4968774;28;20039;-90
2022/06/15 00:38:36;;;;;;;16.52;10.25;;;11.40;55.20;;;;;;4957427;28;20070;-90
2022/06/15 00:41:03;;;;;;;13.88;9.88;;;11.30;73.60;;;;;;4980655;28;20344;-90
2022/06/15 00:43:38;;;;;;;12.88;9.68;;;11.30;80.20;;;;;;4982092;28;20057;-89
2022/06/15 00:46:22;;;;;;;12.75;9.05;;;11.30;98.10;;;;;;4982399;28;20152;-91
2022/06/15 00:48:55;;;;;;;13.80;9.68;;;11.20;99.40;;;;;;4973606;28;20089;-89
2022/06/15 00:51:21;;;;;;;14.43;10.25;;;11.20;99.40;;;;;;4970981;28;20042;-90
2022/06/15 00:53:47;;;;;;;14.52;9.90;;;11.20;99.60;;;;;;4966496;28;20490;-90
2022/06/15 00:56:14;;;;;;;16.35;9.30;;;11.20;99.90;;;;;;4974089;28;20039;-90
2022/06/15 00:58:45;;;;;;;14.60;9.82;;;11.10;88.60;;;;;;4966335;28;20496;-90
2022/06/15 01:01:11;;;;;;;16.35;9.60;;;11.20;99.90;;;;;;4966810;28;20034;-90
2022/06/15 01:03:37;;;;;;;10.52;8.18;;;11.20;99.90;;;;;;4971519;28;20050;-89
2022/06/15 01:06:27;;;;;;;13.57;9.40;;;11.20;99.90;;;;;;4967042;28;20051;-89
2022/06/15 01:08:53;;;;;;;18.17;9.75;;;11.20;99.90;;;;;;4974755;28;20039;-89
2022/06/15 01:11:43;;;;;;;12.43;10.13;;;11.20;99.90;;;;;;4983424;28;20045;-89
2022/06/15 01:14:42;;;;;;;16.77;9.60;;;11.10;99.90;;;;;;4965709;28;20106;-90
2022/06/15 01:17:16;;;;;;;16.38;9.25;;;11.20;99.90;;;;;;4965987;28;20053;-89
2022/06/15 01:19:57;;;;;;;16.90;9.63;;;11.10;99.90;;;;;;4979185;28;20205;-90
2022/06/15 01:22:46;;;;;;;12.27;7.85;;;11.10;99.90;;;;;;4986843;28;20182;-89
2022/06/15 01:25:37;;;;;;;13.73;8.65;;;11.00;99.90;;;;;;4970802;28;20328;-89
2022/06/15 01:28:24;;;;;;;12.48;9.20;;;11.00;99.90;;;;;;4993748;28;20048;-88
2022/06/15 01:31:03;;;;;;;11.75;8.02;;;11.00;99.90;;;;;;4997302;28;20046;-88
2022/06/15 01:34:00;;;;;;;15.10;8.70;;;10.90;99.90;;;;;;4966822;28;20557;-90
2022/06/15 01:36:25;;;;;;;11.23;8.32;;;10.80;99.90;;;;;;4968123;28;20042;-89
2022/06/15 01:39:00;;;;;;;11.05;8.10;;;10.90;99.90;;;;;;4953380;28;20038;-89
2022/06/15 01:41:36;;;;;;;10.48;7.63;;;10.80;99.90;;;;;;4953255;28;20509;-89
2022/06/15 01:44:13;;;;;;;12.88;8.07;;;10.90;99.90;;;;;;4970286;28;20234;-89
2022/06/15 01:46:43;;;;;;;13.73;8.88;;;10.90;99.90;;;;;;4965531;28;20046;-90
2022/06/15 01:49:19;;;;;;;12.50;8.65;;;10.80;99.90;;;;;;4985408;28;20046;-88
2022/06/15 01:51:45;;;;;;;13.18;8.18;;;10.80;99.90;;;;;;4969602;28;20038;-88
2022/06/15 01:54:17;;;;;;;16.10;8.98;;;10.70;99.90;;;;;;4970988;28;20508;-89
2022/06/15 01:56:46;;;;;;;12.02;7.93;;;10.70;99.90;;;;;;4965895;28;20030;-89
2022/06/15 01:59:29;;;;;;;12.88;8.57;;;10.70;99.90;;;;;;4966299;28;20529;-89
2022/06/15 02:02:29;;;;;;;13.27;7.93;;;10.70;99.90;;;;;;4995401;28;20482;-89
2022/06/15 02:05:28;;;;;;;15.38;8.02;;;10.70;99.90;;;;;;4965336;28;20046;-90
2022/06/15 02:08:03;;;;;;;14.57;9.45;;;10.60;99.90;;;;;;4964199;28;20192;-89
2022/06/15 02:10:34;;;;;;;12.15;8.45;;;10.60;99.90;;;;;;4968683;28;20504;-88
2022/06/15 02:13:46;;;;;;;11.52;8.50;;;10.60;99.90;;;;;;4980866;28;20073;-88
2022/06/15 02:16:28;;;;;;;11.93;7.85;;;10.60;99.90;;;;;;4964856;28;20475;-89
2022/06/15 02:18:55;;;;;;;9.40;7.07;;;10.50;99.90;;;;;;4994310;28;20058;-88
2022/06/15 02:21:24;;;;;;;12.07;7.97;;;10.50;99.90;;;;;;4964312;28;20364;-88
2022/06/15 02:23:57;;;;;;;16.08;8.32;;;10.50;99.90;;;;;;4980960;28;20117;-88
2022/06/15 02:26:26;;;;;;;15.90;9.32;;;10.50;99.90;;;;;;4981846;28;20093;-88
2022/06/15 02:28:56;;;;;;;13.98;9.20;;;10.50;99.90;;;;;;4965259;28;20054;-88
2022/06/15 02:31:22;;;;;;;13.45;7.68;;;10.50;99.90;;;;;;4962107;28;20101;-88
2022/06/15 02:33:53;;;;;;;9.75;7.78;;;10.40;99.90;;;;;;4970720;28;20050;-90
2022/06/15 02:36:19;;;;;;;17.00;10.25;;;10.40;99.90;;;;;;4962415;28;20042;-88
2022/06/15 02:38:47;;;;;;;19.15;10.93;;;10.40;99.90;;;;;;4962804;28;20121;-87
2022/06/15 02:41:13;;;;;;;12.60;9.55;;;10.50;99.90;;;;;;4965167;28;20043;-88
2022/06/15 02:43:41;;;;;;;17.73;9.98;;;10.40;99.90;;;;;;4946386;28;20068;-88
2022/06/15 02:46:09;;;;;;;14.88;9.20;;;10.40;99.90;;;;;;4980431;28;20057;-88
2022/06/15 02:48:39;;;;;;;11.07;8.15;;;10.40;99.90;;;;;;4991039;28;20037;-88
2022/06/15 02:51:25;;;;;;;16.48;9.20;;;10.30;99.90;;;;;;4979313;28;20043;-88
2022/06/15 02:53:59;;;;;;;17.42;9.57;;;10.30;99.90;;;;;;4963472;28;20039;-89
2022/06/15 02:56:25;;;;;;;13.07;8.63;;;10.30;99.90;;;;;;4963262;28;20117;-87
2022/06/15 02:58:57;;;;;;;18.90;10.23;;;10.20;99.90;;;;;;4963849;28;20122;-87
2022/06/15 03:01:27;;;;;;;20.48;10.32;;;10.30;99.90;;;;;;4982755;28;20213;-87
2022/06/15 03:03:52;;;;;;;11.52;8.88;;;10.30;99.90;;;;;;4978171;28;20046;-88
2022/06/15 03:06:20;;;;;;;14.55;8.50;;;10.30;99.90;;;;;;4964759;28;20130;-87
2022/06/15 03:08:46;;;;;;;15.95;10.13;;;10.30;99.90;;;;;;4965885;28;20050;-89
2022/06/15 03:11:12;;;;;;;11.98;8.25;;;10.20;99.90;;;;;;4964219;28;20589;-87
2022/06/15 03:13:38;;;;;;;12.35;8.13;;;10.20;99.90;;;;;;4963470;28;20303;-87
2022/06/15 03:16:08;;;;;;;10.95;7.60;;;10.20;99.90;;;;;;4965658;28;20446;-88
2022/06/15 03:18:34;;;;;;;11.70;8.05;;;10.20;99.90;;;;;;4962513;28;20466;-87
2022/06/15 03:21:01;;;;;;;9.95;6.60;;;10.10;99.90;;;;;;4976625;28;20050;-87
2022/06/15 03:23:29;;;;;;;12.20;8.02;;;10.10;99.90;;;;;;4963002;28;20165;-87
2022/06/15 03:25:56;;;;;;;12.32;8.88;;;10.10;99.90;;;;;;4956823;28;20591;-88
2022/06/15 03:28:22;;;;;;;14.23;9.75;;;10.20;99.90;;;;;;4977566;28;20034;-88
2022/06/15 03:30:48;;;;;;;11.48;8.10;;;10.20;99.90;;;;;;4977063;28;20525;-88
2022/06/15 03:33:14;;;;;;;9.15;6.05;;;10.20;99.90;;;;;;4982188;28;20175;-87
2022/06/15 03:35:40;;;;;;;8.15;6.18;;;10.10;99.90;;;;;;4956917;28;20183;-87
2022/06/15 03:38:09;;;;;;;13.38;8.98;;;10.20;99.90;;;;;;4983602;28;20035;-87
2022/06/15 03:40:39;;;;;;;15.80;9.88;;;10.30;99.90;;;;;;4959895;28;20971;-87
2022/06/15 03:43:05;;;;;;;5.45;4.55;;;10.40;99.90;;;;;;4961843;28;20041;-87
2022/06/15 03:45:31;;;;;;;11.75;8.80;;;10.30;99.90;;;;;;4978036;28;20055;-87
2022/06/15 03:47:58;;;;;;;17.08;10.00;;;10.40;99.90;;;;;;4960512;28;20066;-87
2022/06/15 03:50:25;;;;;;;16.52;10.00;;;10.50;99.90;;;;;;4958501;28;20054;-87
2022/06/15 03:52:51;;;;;;;13.57;8.93;;;10.50;99.90;;;;;;4963099;28;20065;-87
2022/06/15 03:55:18;;;;;;;15.65;9.90;;;10.60;99.90;;;;;;4965848;28;20122;-88
2022/06/15 03:57:44;;;;;;;14.43;9.20;;;10.70;99.90;;;;;;4967983;28;20041;-87
2022/06/15 04:00:14;;;;;;;15.80;8.85;;;10.80;99.90;;;;;;4961735;28;20047;-88
2022/06/15 04:02:40;;;;;;;12.25;8.27;;;10.80;99.90;;;;;;4961933;28;20525;-87
2022/06/15 04:05:06;;;;;;;10.68;7.60;;;10.90;99.90;;;;;;4967860;28;20051;-87
2022/06/15 04:10:19;;;;;;;11.75;7.22;;;10.90;99.90;;;;;;4966267;28;20050;-86
2022/06/15 04:12:45;;;;;;;10.48;7.07;;;11.00;99.90;;;;;;4981621;28;20054;-86
2022/06/15 04:15:12;;;;;;;11.25;7.20;;;11.10;99.90;;;;;;4963298;28;20097;-87
2022/06/15 04:17:39;;;;;;;10.90;7.72;;;11.20;99.90;;;;;;4981779;28;20039;-87
2022/06/15 04:22:50;;;;;;;8.05;6.88;;;11.40;99.90;;;;;;4964331;28;20077;-87
2022/06/15 04:25:16;;;;;;;13.20;7.70;;;11.50;99.90;;;;;;4977571;28;20039;-87
2022/06/15 04:27:42;;;;;;;9.40;7.65;;;11.50;99.90;;;;;;4960402;28;20049;-88
2022/06/15 04:30:10;;;;;;;9.82;7.43;;;11.60;99.90;;;;;;4975790;28;20414;-86
2022/06/15 04:32:35;;;;;;;9.93;7.25;;;11.80;99.90;;;;;;4974036;28;20042;-88
2022/06/15 04:35:01;;;;;;;10.85;7.13;;;11.90;99.90;;;;;;4976009;28;20043;-87
2022/06/15 04:37:27;;;;;;;12.75;7.38;;;11.90;99.90;;;;;;4981480;28;20070;-87
2022/06/15 04:39:52;;;;;;;11.70;7.15;;;12.10;99.90;;;;;;4956944;28;20433;-87
2022/06/15 04:42:18;;;;;;;9.73;7.38;;;12.20;99.90;;;;;;4965979;28;20065;-87
2022/06/15 04:44:44;;;;;;;11.02;8.02;;;12.20;99.90;;;;;;4964039;28;20063;-88
2022/06/15 04:47:10;;;;;;;11.90;7.93;;;12.30;99.90;;;;;;4963935;28;20113;-87
2022/06/15 04:49:36;;;;;;;14.27;8.68;;;12.40;99.90;;;;;;4984335;28;20124;-87
2022/06/15 04:52:01;;;;;;;14.57;7.75;;;12.60;99.90;;;;;;4964572;28;20486;-88
2022/06/15 04:54:27;;;;;;;11.38;7.93;;;12.70;99.90;;;;;;4969942;28;20045;-87
2022/06/15 04:56:56;;;;;;;10.38;7.22;;;12.80;99.90;;;;;;4948563;28;20034;-87
2022/06/15 04:59:22;;;;;;;11.77;8.25;;;12.90;99.90;;;;;;4948227;28;20042;-87
2022/06/15 05:01:48;;;;;;;10.48;8.10;;;13.00;95.60;;;;;;4965385;28;20457;-87
2022/06/15 05:04:14;;;;;;;11.98;7.95;;;13.00;41.20;;;;;;4963517;28;20470;-88
2022/06/15 05:06:40;;;;;;;9.32;7.43;;;13.20;24.50;;;;;;4967688;28;20054;-86
2022/06/15 05:09:10;;;;;;;10.55;7.65;;;13.30;6.90;;;;;;4982380;28;20047;-88
2022/06/15 05:11:36;;;;;;;9.38;7.80;;;13.40;2.60;;;;;;4967048;28;20055;-87
2022/06/15 05:14:03;;;;;;;10.98;7.57;;;13.50;10.80;;;;;;4965140;28;20044;-87
2022/06/15 05:16:29;;;;;;;11.95;7.97;;;13.60;1.00;;;;;;4987375;28;20043;-87
2022/06/15 05:18:55;;;;;;;12.25;7.50;;;13.70;1.00;;;;;;4969053;28;20026;-86
2022/06/15 05:21:21;;;;;;;7.80;7.00;;;13.80;1.00;;;;;;4969729;28;20113;-87
2022/06/15 05:23:47;;;;;;;8.95;7.20;;;14.00;1.00;;;;;;4971336;28;20039;-88
2022/06/15 05:26:14;;;;;;;10.68;7.40;;;14.00;1.00;;;;;;4966180;28;20039;-87
2022/06/15 05:28:41;;;;;;;11.80;7.00;;;14.20;1.00;;;;;;4980183;28;20047;-87
2022/06/15 05:31:11;;;;;;;11.50;6.70;;;14.20;1.00;;;;;;4965626;28;20050;-86
2022/06/15 05:33:40;;;;;;;13.77;7.60;;;14.20;99.90;;;;;;4965002;28;20445;-87
2022/06/15 05:36:12;;;;;;;9.95;6.88;;;14.10;99.90;;;;;;4965275;28;20086;-87
2022/06/15 05:38:39;;;;;;;11.40;7.18;;;14.20;99.90;;;;;;4980139;28;20042;-87
2022/06/15 05:41:05;;;;;;;12.60;6.60;;;14.20;99.90;;;;;;4943057;28;20050;-87
2022/06/15 05:43:34;;;;;;;11.15;6.45;;;14.30;99.90;;;;;;4963650;28;20058;-87
2022/06/15 05:46:15;;;;;;;8.65;6.93;;;14.50;99.90;;;;;;4963734;28;20039;-87
2022/06/15 05:48:41;;;;;;;11.45;7.22;;;14.60;99.90;;;;;;4960559;28;20406;-86
2022/06/15 05:51:06;;;;;;;11.07;6.60;;;14.70;99.90;;;;;;4963124;28;20045;-87
2022/06/15 05:53:32;;;;;;;12.38;6.90;;;14.70;1.00;;;;;;4980243;28;20105;-88
2022/06/15 05:55:58;;;;;;;9.27;6.18;;;15.00;99.90;;;;;;4965742;28;20350;-87
2022/06/15 05:58:23;;;;;;;11.27;6.38;;;15.00;99.90;;;;;;4964106;28;20045;-87
2022/06/15 06:00:49;;;;;;;8.45;5.40;;;15.00;99.90;;;;;;4963238;28;20046;-88
2022/06/15 06:03:16;;;;;;;9.48;6.15;;;15.20;99.90;;;;;;4980239;28;20106;-89
2022/06/15 06:05:44;;;;;;;10.13;6.25;;;15.10;99.90;;;;;;4963949;28;20138;-88
2022/06/15 06:08:10;;;;;;;12.27;6.57;;;15.00;99.90;;;;;;4982791;28;20048;-88
2022/06/15 06:10:36;;;;;;;12.27;6.50;;;15.10;99.90;;;;;;4987540;28;20046;-87
2022/06/15 06:13:01;;;;;;;10.38;6.13;;;15.30;99.90;;;;;;4963096;28;20067;-88
2022/06/15 06:15:27;;;;;;;12.38;5.82;;;15.30;99.90;;;;;;4965663;28;20050;-89
2022/06/15 06:17:53;;;;;;;11.07;6.25;;;15.80;99.90;;;;;;4949381;28;20066;-88
2022/06/15 06:20:19;;;;;;;10.45;5.65;;;15.90;99.90;;;;;;4966929;28;20082;-88
2022/06/15 06:22:47;;;;;;;8.32;5.75;;;16.00;99.90;;;;;;4963698;28;20042;-89
2022/06/15 06:25:16;;;;;;;6.63;5.63;;;15.70;99.90;;;;;;4965997;28;20109;-89
2022/06/15 06:27:41;;;;;;;9.85;5.80;;;16.00;99.90;;;;;;4964185;28;20105;-87
2022/06/15 06:30:10;;;;;;;8.20;5.53;;;15.80;99.90;;;;;;4961929;28;20043;-88
2022/06/15 06:32:39;;;;;;;10.10;5.50;;;16.20;99.90;;;;;;4945448;28;20122;-88
2022/06/15 06:35:07;;;;;;;9.30;6.13;;;16.40;99.90;;;;;;4982716;28;20178;-89
2022/06/15 06:37:35;;;;;;;8.57;6.20;;;16.30;99.90;;;;;;4962324;28;20039;-88
2022/06/15 06:40:01;;;;;;;9.15;5.95;;;16.20;99.90;;;;;;4966274;28;20398;-89
2022/06/15 06:42:27;;;;;;;10.95;6.38;;;16.30;99.90;;;;;;4963424;28;20050;-89
2022/06/15 06:44:55;;;;;;;7.88;5.97;;;16.10;99.90;;;;;;4964567;28;20051;-90
2022/06/15 06:47:21;;;;;;;10.30;6.53;;;16.00;99.90;;;;;;4962757;28;20494;-89
2022/06/15 06:49:47;;;;;;;8.23;6.30;;;15.80;99.90;;;;;;4965302;28;20046;-89
2022/06/15 06:52:13;;;;;;;13.23;6.40;;;15.70;99.90;;;;;;4974674;28;20059;-89
2022/06/15 06:54:39;;;;;;;10.80;6.38;;;15.80;99.90;;;;;;4946607;28;20504;-90
2022/06/15 06:57:05;;;;;;;8.90;6.60;;;15.50;99.90;;;;;;4960777;28;20122;-88
2022/06/15 06:59:30;;;;;;;8.60;6.18;;;15.70;99.90;;;;;;4962682;28;20079;-90
2022/06/15 07:01:59;;;;;;;10.90;6.70;;;16.10;99.90;;;;;;4949286;28;20043;-89
2022/06/15 07:04:25;;;;;;;9.00;5.97;;;16.30;99.90;;;;;;4968989;28;20042;-89
2022/06/15 07:06:54;;;;;;;11.00;6.25;;;16.10;99.90;;;;;;4979273;28;20052;-88
2022/06/15 07:09:19;;;;;;;9.65;5.60;;;16.20;99.90;;;;;;4970103;28;20508;-88
2022/06/15 07:11:45;;;;;;;11.50;5.38;;;16.30;99.90;;;;;;4975954;28;20039;-89
2022/06/15 07:14:12;;;;;;;9.75;4.35;;;16.50;99.90;;;;;;4960355;28;20434;-89
2022/06/15 07:16:37;;;;;;;7.00;3.67;;;16.70;99.90;;;;;;4965969;28;20744;-89
2022/06/15 07:19:03;;;;;;;4.93;2.63;;;16.90;99.90;;;;;;4968017;28;20113;-90
2022/06/15 07:21:29;;;;;;;5.25;3.00;;;17.10;70.50;;;;;;4963279;28;20125;-89
2022/06/15 07:23:57;;;;;;;7.78;3.70;;;17.60;27.30;;;;;;4981062;28;20560;-89
2022/06/15 07:26:32;;;;;;;5.80;3.40;;;17.60;99.90;;;;;;4967755;28;20038;-89
2022/06/15 07:28:58;;;;;;;5.45;2.90;;;17.80;54.70;;;;;;4961396;28;20047;-90
2022/06/15 07:31:36;;;;;;;7.05;3.00;;;18.00;1.00;;;;;;4963042;28;20379;-89
2022/06/15 07:34:03;;;;;;;5.93;3.10;;;18.10;1.00;;;;;;4968542;28;20383;-89
2022/06/15 07:36:29;;;;;;;7.85;3.70;;;18.40;1.00;;;;;;4981353;28;20045;-89
2022/06/15 07:38:57;;;;;;;4.88;2.78;;;18.20;1.30;;;;;;4967092;28;20274;-89
2022/06/15 07:41:24;;;;;;;6.43;3.15;;;18.50;1.00;;;;;;4963880;28;20051;-89
2022/06/15 07:43:50;;;;;;;4.88;2.72;;;18.30;9.30;;;;;;4960917;28;20051;-89
2022/06/15 07:46:16;;;;;;;5.38;2.67;;;18.50;1.00;;;;;;4979753;28;20130;-87
2022/06/15 07:51:38;;;;;;;6.90;3.10;;;19.00;1.00;;;;;;4965924;28;20698;-89
2022/06/15 07:54:08;;;;;;;5.68;2.63;;;19.10;1.00;;;;;;4960297;28;20051;-90
2022/06/15 07:56:34;;;;;;;5.90;2.53;;;19.20;1.00;;;;;;4950493;28;20561;-88
2022/06/15 07:59:03;;;;;;;7.05;2.50;;;19.10;1.00;;;;;;4954488;28;20037;-90
2022/06/15 08:01:29;;;;;;;5.65;2.33;;;19.30;1.00;;;;;;4955137;28;21469;-89
2022/06/15 08:03:55;;;;;;;7.45;2.70;;;18.80;1.00;;;;;;4942698;28;20038;-88
2022/06/15 08:06:23;;;;;;;7.15;2.47;;;19.00;1.00;;;;;;4988000;28;20282;-89
2022/06/15 08:08:49;;;;;;;7.63;2.75;;;19.50;1.00;;;;;;4958919;28;20455;-88
2022/06/15 08:11:16;;;;;;;9.20;3.05;;;19.80;1.00;;;;;;4962488;28;20061;-89
2022/06/15 08:13:42;;;;;;;4.35;2.20;;;20.00;1.00;;;;;;4962462;28;20046;-88
2022/06/15 08:16:08;;;;;;;5.78;2.47;;;20.50;1.00;;;;;;4981557;28;20038;-90
2022/06/15 08:18:39;;;;;;;4.72;2.30;;;20.50;1.00;;;;;;4968700;28;20565;-82
2022/06/15 08:21:09;;;;;;;7.35;2.53;;;20.80;1.00;;;;;;4963500;28;20074;-83
2022/06/15 08:23:37;;;;;;;4.07;1.90;;;20.50;1.00;;;;;;4965596;28;20053;-82
2022/06/15 08:26:08;;;;;;;4.97;1.85;;;20.80;99.90;;;;;;4966191;28;20039;-83
2022/06/15 08:28:38;;;;;;;6.50;1.80;;;20.20;99.90;;;;;;4964408;28;20039;-82
2022/06/15 08:31:04;;;;;;;4.90;1.85;;;20.40;99.90;;;;;;4985251;28;20039;-83
2022/06/15 08:33:30;;;;;;;5.50;2.42;;;20.40;99.90;;;;;;4967171;28;20143;-83
2022/06/15 08:35:56;;;;;;;3.45;2.00;;;20.50;99.90;;;;;;4963039;28;20513;-83
2022/06/15 08:38:25;;;;;;;3.47;2.00;;;20.60;99.90;;;;;;4971713;28;20573;-83
2022/06/15 08:41:31;;;;;;;5.28;2.00;;;20.80;99.90;;;;;;4968776;28;20043;-83
2022/06/15 08:44:28;;;;;;;4.85;2.40;;;20.90;99.90;;;;;;4910788;29;20491;-83
2022/06/15 08:47:03;;;;;;;7.05;2.53;;;20.60;99.90;;;;;;4928337;29;20043;-82
2022/06/15 08:50:01;;;;;;;7.93;2.40;;;20.20;99.90;;;;;;4976805;28;20398;-83
2022/06/15 08:52:53;;;;;;;6.75;2.70;;;20.20;99.90;;;;;;4967207;28;20039;-82
2022/06/15 08:55:37;;;;;;;5.45;2.40;;;20.10;99.90;;;;;;4963311;28;20039;-83
2022/06/15 08:58:11;;;;;;;4.88;2.30;;;20.80;99.90;;;;;;4976110;28;20609;-83
2022/06/15 09:00:39;;;;;;;5.37;2.37;;;20.90;99.90;;;;;;4974375;28;20086;-83
2022/06/15 09:03:21;;;;;;;6.00;2.47;;;20.90;99.90;;;;;;4986632;28;20046;-83
2022/06/15 09:06:05;;;;;;;5.20;2.60;;;20.70;99.90;;;;;;4984145;28;20556;-83
2022/06/15 09:08:34;;;;;;;4.68;2.17;;;20.80;99.90;;;;;;4963174;28;20043;-83
2022/06/15 09:11:08;;;;;;;6.13;2.30;;;21.00;99.90;;;;;;4980904;28;20522;-83
2022/06/15 09:14:15;;;;;;;4.38;2.53;;;21.60;99.90;;;;;;4965935;28;20534;-83
2022/06/15 09:17:06;;;;;;;6.88;2.22;;;21.60;99.90;;;;;;4982624;28;20531;-83
2022/06/15 09:19:36;;;;;;;4.07;1.85;;;21.60;99.90;;;;;;4963524;28;20038;-83
2022/06/15 09:22:04;;;;;;;7.18;2.67;;;22.20;99.90;;;;;;4966361;28;20125;-83
2022/06/15 09:24:35;;;;;;;4.75;2.03;;;22.30;99.90;;;;;;4966727;28;20129;-84
2022/06/15 09:27:15;;;;;;;6.95;2.20;;;22.40;99.90;;;;;;4977640;28;20126;-83
2022/06/15 09:29:52;;;;;;;6.25;2.25;;;22.60;99.90;;;;;;4977668;28;20050;-83
2022/06/15 09:32:30;;;;;;;4.40;2.20;;;22.80;99.90;;;;;;4986071;28;20405;-83
2022/06/15 09:35:16;;;;;;;4.55;2.20;;;23.00;99.90;;;;;;4969326;28;20226;-84
2022/06/15 09:37:50;;;;;;;7.65;2.25;;;23.00;99.90;;;;;;4979226;28;20425;-83
2022/06/15 09:40:17;;;;;;;5.95;2.40;;;23.30;99.90;;;;;;4966354;28;20074;-83
2022/06/15 09:43:10;;;;;;;5.10;2.92;;;23.30;99.90;;;;;;4966270;28;20053;-83
2022/06/15 09:45:43;;;;;;;6.30;2.83;;;22.10;99.90;;;;;;4967549;28;20126;-83
2022/06/15 09:48:40;;;;;;;6.47;2.60;;;21.40;99.90;;;;;;4968840;28;20049;-83
2022/06/15 09:51:12;;;;;;;7.43;2.83;;;20.60;99.90;;;;;;4964762;28;20073;-83
2022/06/15 09:53:55;;;;;;;7.88;3.00;;;20.50;99.90;;;;;;4969955;28;20054;-83
2022/06/15 09:56:21;;;;;;;7.80;3.15;;;20.30;99.90;;;;;;4981794;28;20120;-83
2022/06/15 09:59:03;;;;;;;5.65;3.00;;;20.20;99.90;;;;;;4962862;28;20051;-82
2022/06/15 10:01:34;;;;;;;5.95;3.53;;;20.10;99.90;;;;;;4965329;28;20671;-83
2022/06/15 10:04:02;;;;;;;7.43;2.85;;;20.00;99.90;;;;;;4977496;28;20051;-83
2022/06/15 10:06:42;;;;;;;8.52;2.80;;;20.10;99.90;;;;;;4981057;28;20050;-83
2022/06/15 10:09:12;;;;;;;4.75;2.60;;;21.20;99.90;;;;;;4983267;28;20046;-83
2022/06/15 10:11:45;;;;;;;8.75;2.75;;;21.80;99.90;;;;;;4965772;28;20046;-83
2022/06/15 10:14:30;;;;;;;5.47;2.80;;;22.30;99.90;;;;;;4960439;28;20109;-83
2022/06/15 10:17:29;;;;;;;4.38;2.50;;;22.60;99.90;;;;;;4961667;28;20038;-83
2022/06/15 10:19:59;;;;;;;3.38;2.40;;;23.00;99.90;;;;;;4978697;28;20051;-83
2022/06/15 10:22:39;;;;;;;5.47;2.30;;;23.00;99.90;;;;;;4963539;28;20130;-84
2022/06/15 10:25:06;;;;;;;3.58;2.35;;;23.20;99.90;;;;;;4967177;28;20561;-83
2022/06/15 10:27:38;;;;;;;5.82;2.40;;;23.50;99.90;;;;;;4963613;28;20073;-83
2022/06/15 10:30:06;;;;;;;3.20;2.20;;;22.90;99.90;;;;;;4963600;28;20046;-84
2022/06/15 10:32:33;;;;;;;5.15;2.30;;;23.40;99.90;;;;;;4977192;28;20054;-84
2022/06/15 10:35:15;;;;;;;4.32;2.00;;;23.00;99.90;;;;;;4983338;28;20046;-83
2022/06/15 10:37:49;;;;;;;8.82;2.63;;;23.40;99.90;;;;;;4979592;28;20043;-83
2022/06/15 10:40:43;;;;;;;3.97;1.90;;;23.10;99.90;;;;;;4964307;28;20343;-83
2022/06/15 10:43:23;;;;;;;6.22;2.40;;;24.00;99.90;;;;;;4960780;28;20496;-83
2022/06/15 10:46:05;;;;;;;4.28;2.10;;;23.70;99.90;;;;;;4963072;28;20268;-84
2022/06/15 10:48:42;;;;;;;4.22;1.90;;;24.00;99.90;;;;;;4946373;28;20174;-84
2022/06/15 10:51:15;;;;;;;5.13;2.15;;;24.80;99.90;;;;;;4969807;28;20047;-84
2022/06/15 10:53:51;;;;;;;4.35;2.17;;;24.70;99.90;;;;;;4972884;28;20047;-83
2022/06/15 11:02:21;;;;;;;5.25;2.47;;;24.00;99.90;;;;;;4965599;28;20043;-83
2022/06/15 11:04:47;;;;;;;5.55;2.72;;;23.70;99.90;;;;;;4965988;28;20049;-83
2022/06/15 11:07:21;;;;;;;5.55;2.25;;;24.30;99.90;;;;;;4964941;28;20274;-83
2022/06/15 11:09:53;;;;;;;;;;;24.30;99.90;;;;;;4962913;28;20051;-83
2022/06/15 11:12:24;;;;;;;5.18;2.45;;;22.80;99.90;;;;;;4967215;28;20180;-84
2022/06/15 11:15:00;;;;;;;5.30;2.55;;;23.20;99.90;;;;;;4970739;28;20121;-83
2022/06/15 11:20:23;;;;;;;4.03;2.28;;;22.20;99.90;;;;;;4978542;28;20054;-84
2022/06/15 11:22:53;;;;;;;4.22;2.20;;;22.70;99.90;;;;;;4978209;28;20170;-83
2022/06/15 11:25:42;;;;;;;3.97;2.08;;;23.10;99.90;;;;;;4961134;28;20039;-83
2022/06/15 11:28:14;;;;;;;4.03;2.30;;;22.90;99.90;;;;;;4954020;28;20546;-83
2022/06/15 11:30:49;;;;;;;6.15;2.38;;;22.20;99.90;;;;;;4963033;28;20065;-83
2022/06/15 11:33:27;;;;;;;3.38;2.25;;;22.60;99.90;;;;;;4962308;28;20121;-84
2022/06/15 11:36:00;;;;;;;4.70;2.40;;;22.20;99.90;;;;;;4956875;28;20518;-83
2022/06/15 11:38:31;;;;;;;5.18;2.60;;;21.90;99.90;;;;;;4962200;28;20038;-83
2022/06/15 11:41:18;;;;;;;4.38;2.40;;;22.30;99.90;;;;;;4979991;28;20054;-83
2022/06/15 11:43:46;;;;;;;4.70;2.55;;;22.60;99.90;;;;;;4964921;28;20523;-83
2022/06/15 11:46:50;;;;;;;5.32;2.10;;;23.00;99.90;;;;;;4980359;28;20093;-83
2022/06/15 11:49:44;;;;;;;5.60;2.33;;;23.20;99.90;;;;;;4924707;28;20050;-83
2022/06/15 11:52:16;;;;;;;3.40;2.20;;;23.70;99.90;;;;;;4982895;28;20561;-83
2022/06/15 11:54:42;;;;;;;5.18;2.20;;;23.80;99.90;;;;;;4969692;28;20042;-84
2022/06/15 11:57:13;;;;;;;3.72;2.10;;;24.00;99.90;;;;;;4964909;28;20035;-84
2022/06/15 11:59:59;;;;;;;5.45;2.20;;;24.20;99.90;;;;;;4966105;28;20047;-84
2022/06/15 12:02:44;;;;;;;4.82;2.35;;;24.30;99.90;;;;;;4996213;28;20061;-84
2022/06/15 12:05:34;;;;;;;4.07;2.13;;;24.60;99.90;;;;;;4995475;28;20082;-84
2022/06/15 12:08:45;;;;;;;6.80;2.35;;;24.40;99.90;;;;;;4964632;28;20043;-84
2022/06/15 12:14:52;;;;;;;4.03;2.42;;;22.60;99.90;;;;;;4966690;28;20152;-84
2022/06/15 12:17:29;;;;;;;4.43;2.30;;;23.40;99.90;;;;;;4995457;28;20148;-84
2022/06/15 12:20:05;;;;;;;3.10;1.88;;;23.30;99.90;;;;;;4965278;28;20039;-84
2022/06/15 12:22:59;;;;;;;3.67;2.00;;;24.10;99.90;;;;;;4983435;28;20326;-84
2022/06/15 12:25:40;;;;;;;4.93;2.30;;;25.10;99.90;;;;;;4966104;28;20128;-84
2022/06/15 12:28:17;;;;;;;5.10;1.90;;;25.60;99.90;;;;;;4966547;28;20515;-84
2022/06/15 12:30:46;;;;;;;3.53;2.10;;;26.10;99.90;;;;;;4982336;28;20397;-84
2022/06/15 12:33:33;;;;;;;5.13;2.13;;;24.50;99.90;;;;;;4969697;28;20393;-84
2022/06/15 12:36:11;;;;;;;4.88;2.00;;;23.40;99.90;;;;;;4982756;28;20045;-84
2022/06/15 12:38:57;;;;;;;4.43;2.30;;;22.70;99.90;;;;;;4980482;28;20047;-84
2022/06/15 12:44:40;;;;;;;5.82;2.55;;;23.60;99.90;;;;;;4978661;28;20051;-84
2022/06/15 12:47:12;;;;;;;5.55;2.60;;;22.50;99.90;;;;;;4965715;28;20044;-85
2022/06/15 12:49:59;;;;;;;5.25;2.55;;;22.80;99.90;;;;;;4983757;28;20050;-84
2022/06/15 12:52:35;;;;;;;4.35;2.55;;;22.80;99.90;;;;;;4980859;28;20050;-84
2022/06/15 12:55:37;;;;;;;7.70;2.38;;;22.60;99.90;;;;;;4966729;28;20042;-84
2022/06/15 12:58:29;;;;;;;3.72;2.17;;;23.00;99.90;;;;;;4950421;28;20505;-85
2022/06/15 13:01:18;;;;;;;4.82;2.47;;;23.30;99.90;;;;;;4966283;28;20039;-85
2022/06/15 13:04:03;;;;;;;5.18;2.60;;;23.40;99.90;;;;;;4989177;28;20100;-85
2022/06/15 13:06:34;;;;;;;;;;;24.10;99.90;;;;;;4981238;28;20059;-85
2022/06/15 13:09:14;;;;;;;5.03;2.50;;;23.00;99.90;;;;;;4978258;28;19922;-84
2022/06/15 13:11:59;;;;;;;5.07;2.53;;;24.00;99.90;;;;;;4968379;28;20043;-84
2022/06/15 13:14:46;;;;;;;6.32;2.47;;;23.90;99.90;;;;;;4963685;28;20061;-85
2022/06/15 13:17:19;;;;;;;5.20;2.70;;;23.30;99.90;;;;;;4990801;28;20042;-84
2022/06/15 13:19:59;;;;;;;5.28;2.50;;;24.20;99.90;;;;;;4964588;28;20042;-84
2022/06/15 13:22:29;;;;;;;6.22;2.45;;;23.90;99.90;;;;;;4962546;28;20370;-85
2022/06/15 13:24:55;;;;;;;3.38;2.40;;;25.00;99.90;;;;;;4995300;28;20030;-85
2022/06/15 13:27:37;;;;;;;4.80;2.70;;;25.10;99.90;;;;;;4950414;28;20541;-84
2022/06/15 13:30:18;;;;;;;4.70;2.75;;;23.90;99.90;;;;;;4967801;28;20050;-84
2022/06/15 13:33:11;;;;;;;3.28;2.40;;;23.30;99.90;;;;;;4962999;28;20082;-84
2022/06/15 13:35:43;;;;;;;5.03;2.60;;;23.00;99.90;;;;;;4970793;28;20050;-85